sensor_id;sensor_type;location;lat;lon;timestamp;P1;durP1;ratioP1;P2;durP2;ratioP2
11699;SDS011;5906;51.660;6.674;2023-09-19T00:00:44;6.27;;;2.80;;
11699;SDS011;5906;51.660;6.674;2023-09-19T00:03:14;13.93;;;3.50;;
11699;SDS011;5906;51.660;6.674;2023-09-19T00:05:41;20.10;;;3.23;;
11699;SDS011;5906;51.660;6.674;2023-09-19T00:08:12;9.73;;;3.30;;
11699;SDS011;5906;51.660;6.674;2023-09-19T00:10:40;17.03;;;3.43;;
11699;SDS011;5906;51.660;6.674;2023-09-19T00:13:09;15.27;;;3.67;;
11699;SDS011;5906;51.660;6.674;2023-09-19T00:15:42;18.37;;;3.07;;
11699;SDS011;5906;51.660;6.674;2023-09-19T00:18:17;17.23;;;3.57;;
11699;SDS011;5906;51.660;6.674;2023-09-19T00:20:49;8.73;;;3.60;;
11699;SDS011;5906;51.660;6.674;2023-09-19T00:23:25;9.63;;;3.37;;
11699;SDS011;5906;51.660;6.674;2023-09-19T00:25:53;10.63;;;3.40;;
11699;SDS011;5906;51.660;6.674;2023-09-19T00:28:24;18.83;;;3.30;;
11699;SDS011;5906;51.660;6.674;2023-09-19T00:30:52;12.70;;;3.03;;
11699;SDS011;5906;51.660;6.674;2023-09-19T00:33:23;11.43;;;3.43;;
11699;SDS011;5906;51.660;6.674;2023-09-19T00:35:51;14.10;;;3.57;;
11699;SDS011;5906;51.660;6.674;2023-09-19T00:38:19;14.60;;;2.90;;
11699;SDS011;5906;51.660;6.674;2023-09-19T00:40:49;11.93;;;2.97;;
11699;SDS011;5906;51.660;6.674;2023-09-19T00:43:21;14.63;;;3.20;;
11699;SDS011;5906;51.660;6.674;2023-09-19T00:45:51;9.37;;;2.70;;
11699;SDS011;5906;51.660;6.674;2023-09-19T00:48:20;13.60;;;3.10;;
11699;SDS011;5906;51.660;6.674;2023-09-19T00:50:49;16.43;;;3.20;;
11699;SDS011;5906;51.660;6.674;2023-09-19T00:53:18;12.23;;;3.20;;
11699;SDS011;5906;51.660;6.674;2023-09-19T00:55:47;11.77;;;3.10;;
11699;SDS011;5906;51.660;6.674;2023-09-19T00:58:16;12.77;;;4.37;;
11699;SDS011;5906;51.660;6.674;2023-09-19T01:00:45;8.90;;;2.87;;
11699;SDS011;5906;51.660;6.674;2023-09-19T01:03:14;18.47;;;5.13;;
11699;SDS011;5906;51.660;6.674;2023-09-19T01:05:41;13.03;;;3.43;;
11699;SDS011;5906;51.660;6.674;2023-09-19T01:08:09;7.00;;;2.97;;
11699;SDS011;5906;51.660;6.674;2023-09-19T01:10:40;15.00;;;3.90;;
11699;SDS011;5906;51.660;6.674;2023-09-19T01:29:47;17.13;;;3.90;;
11699;SDS011;5906;51.660;6.674;2023-09-19T01:32:19;12.80;;;3.27;;
11699;SDS011;5906;51.660;6.674;2023-09-19T01:34:50;15.20;;;3.83;;
11699;SDS011;5906;51.660;6.674;2023-09-19T01:37:20;18.17;;;3.83;;
11699;SDS011;5906;51.660;6.674;2023-09-19T01:39:52;21.43;;;3.77;;
11699;SDS011;5906;51.660;6.674;2023-09-19T01:47:59;11.73;;;3.13;;
11699;SDS011;5906;51.660;6.674;2023-09-19T01:50:44;15.73;;;4.07;;
11699;SDS011;5906;51.660;6.674;2023-09-19T01:53:23;10.50;;;2.90;;
11699;SDS011;5906;51.660;6.674;2023-09-19T01:55:57;14.47;;;4.43;;
11699;SDS011;5906;51.660;6.674;2023-09-19T01:58:35;27.23;;;4.17;;
11699;SDS011;5906;51.660;6.674;2023-09-19T02:01:10;12.10;;;3.93;;
11699;SDS011;5906;51.660;6.674;2023-09-19T02:03:41;17.93;;;3.87;;
11699;SDS011;5906;51.660;6.674;2023-09-19T02:06:14;15.40;;;3.23;;
11699;SDS011;5906;51.660;6.674;2023-09-19T02:08:42;14.73;;;4.03;;
11699;SDS011;5906;51.660;6.674;2023-09-19T02:11:09;13.13;;;3.57;;
11699;SDS011;5906;51.660;6.674;2023-09-19T02:13:37;10.83;;;2.97;;
11699;SDS011;5906;51.660;6.674;2023-09-19T02:16:05;10.50;;;2.93;;
11699;SDS011;5906;51.660;6.674;2023-09-19T02:18:33;13.67;;;3.80;;
11699;SDS011;5906;51.660;6.674;2023-09-19T02:21:03;7.63;;;3.37;;
11699;SDS011;5906;51.660;6.674;2023-09-19T02:23:30;20.53;;;3.80;;
11699;SDS011;5906;51.660;6.674;2023-09-19T02:25:58;10.97;;;4.10;;
11699;SDS011;5906;51.660;6.674;2023-09-19T02:28:31;13.03;;;3.40;;
11699;SDS011;5906;51.660;6.674;2023-09-19T02:30:58;18.23;;;3.90;;
11699;SDS011;5906;51.660;6.674;2023-09-19T02:33:26;17.70;;;3.53;;
11699;SDS011;5906;51.660;6.674;2023-09-19T02:35:56;11.40;;;3.20;;
11699;SDS011;5906;51.660;6.674;2023-09-19T02:38:27;13.27;;;2.83;;
11699;SDS011;5906;51.660;6.674;2023-09-19T02:40:55;10.73;;;3.13;;
11699;SDS011;5906;51.660;6.674;2023-09-19T02:43:23;17.50;;;3.63;;
11699;SDS011;5906;51.660;6.674;2023-09-19T02:45:50;15.07;;;3.53;;
11699;SDS011;5906;51.660;6.674;2023-09-19T02:48:19;24.43;;;4.00;;
11699;SDS011;5906;51.660;6.674;2023-09-19T02:50:50;15.43;;;3.20;;
11699;SDS011;5906;51.660;6.674;2023-09-19T02:53:17;9.23;;;2.70;;
11699;SDS011;5906;51.660;6.674;2023-09-19T02:55:46;10.50;;;3.73;;
11699;SDS011;5906;51.660;6.674;2023-09-19T02:58:13;10.80;;;3.13;;
11699;SDS011;5906;51.660;6.674;2023-09-19T03:00:41;15.60;;;3.10;;
11699;SDS011;5906;51.660;6.674;2023-09-19T03:03:08;9.30;;;3.40;;
11699;SDS011;5906;51.660;6.674;2023-09-19T03:05:36;14.83;;;3.63;;
11699;SDS011;5906;51.660;6.674;2023-09-19T03:08:04;15.80;;;3.60;;
11699;SDS011;5906;51.660;6.674;2023-09-19T03:10:32;20.33;;;3.47;;
11699;SDS011;5906;51.660;6.674;2023-09-19T03:12:59;15.10;;;3.63;;
11699;SDS011;5906;51.660;6.674;2023-09-19T03:15:26;11.47;;;3.20;;
11699;SDS011;5906;51.660;6.674;2023-09-19T03:17:53;11.00;;;3.10;;
11699;SDS011;5906;51.660;6.674;2023-09-19T03:20:20;12.07;;;2.93;;
11699;SDS011;5906;51.660;6.674;2023-09-19T03:22:49;16.47;;;3.57;;
11699;SDS011;5906;51.660;6.674;2023-09-19T03:25:16;8.23;;;2.83;;
11699;SDS011;5906;51.660;6.674;2023-09-19T03:27:44;12.37;;;3.53;;
11699;SDS011;5906;51.660;6.674;2023-09-19T03:30:11;12.70;;;3.97;;
11699;SDS011;5906;51.660;6.674;2023-09-19T03:32:44;11.00;;;2.83;;
11699;SDS011;5906;51.660;6.674;2023-09-19T03:35:17;16.63;;;3.27;;
11699;SDS011;5906;51.660;6.674;2023-09-19T03:37:44;11.37;;;4.00;;
11699;SDS011;5906;51.660;6.674;2023-09-19T03:40:11;15.73;;;3.03;;
11699;SDS011;5906;51.660;6.674;2023-09-19T03:42:40;15.90;;;3.13;;
11699;SDS011;5906;51.660;6.674;2023-09-19T03:45:08;9.50;;;2.70;;
11699;SDS011;5906;51.660;6.674;2023-09-19T03:47:39;10.03;;;3.67;;
11699;SDS011;5906;51.660;6.674;2023-09-19T03:50:07;7.63;;;2.90;;
11699;SDS011;5906;51.660;6.674;2023-09-19T03:52:37;9.87;;;3.03;;
11699;SDS011;5906;51.660;6.674;2023-09-19T03:55:04;18.37;;;3.63;;
11699;SDS011;5906;51.660;6.674;2023-09-19T03:57:32;11.07;;;3.60;;
11699;SDS011;5906;51.660;6.674;2023-09-19T03:59:59;10.97;;;2.83;;
11699;SDS011;5906;51.660;6.674;2023-09-19T04:02:26;14.80;;;3.90;;
11699;SDS011;5906;51.660;6.674;2023-09-19T04:04:59;12.50;;;2.80;;
11699;SDS011;5906;51.660;6.674;2023-09-19T04:07:26;14.67;;;3.00;;
11699;SDS011;5906;51.660;6.674;2023-09-19T04:09:55;10.63;;;3.40;;
11699;SDS011;5906;51.660;6.674;2023-09-19T04:12:22;14.13;;;3.23;;
11699;SDS011;5906;51.660;6.674;2023-09-19T04:14:49;12.77;;;3.20;;
11699;SDS011;5906;51.660;6.674;2023-09-19T04:17:16;14.80;;;3.33;;
11699;SDS011;5906;51.660;6.674;2023-09-19T04:19:45;11.53;;;3.10;;
11699;SDS011;5906;51.660;6.674;2023-09-19T04:22:12;13.93;;;3.27;;
11699;SDS011;5906;51.660;6.674;2023-09-19T04:24:39;11.40;;;3.00;;
11699;SDS011;5906;51.660;6.674;2023-09-19T04:27:06;7.80;;;3.10;;
11699;SDS011;5906;51.660;6.674;2023-09-19T04:29:33;9.47;;;2.70;;
11699;SDS011;5906;51.660;6.674;2023-09-19T04:32:01;12.27;;;3.20;;
11699;SDS011;5906;51.660;6.674;2023-09-19T04:34:32;7.73;;;3.00;;
11699;SDS011;5906;51.660;6.674;2023-09-19T04:37:01;14.13;;;3.57;;
11699;SDS011;5906;51.660;6.674;2023-09-19T04:39:28;14.40;;;3.60;;
11699;SDS011;5906;51.660;6.674;2023-09-19T04:41:55;8.87;;;3.73;;
11699;SDS011;5906;51.660;6.674;2023-09-19T04:44:23;16.13;;;2.63;;
11699;SDS011;5906;51.660;6.674;2023-09-19T04:46:50;12.63;;;3.30;;
11699;SDS011;5906;51.660;6.674;2023-09-19T04:49:17;17.33;;;3.27;;
11699;SDS011;5906;51.660;6.674;2023-09-19T04:51:45;6.73;;;3.10;;
11699;SDS011;5906;51.660;6.674;2023-09-19T04:54:13;14.97;;;3.27;;
11699;SDS011;5906;51.660;6.674;2023-09-19T04:56:41;11.20;;;3.20;;
11699;SDS011;5906;51.660;6.674;2023-09-19T04:59:08;16.03;;;3.60;;
11699;SDS011;5906;51.660;6.674;2023-09-19T05:01:37;8.23;;;2.40;;
11699;SDS011;5906;51.660;6.674;2023-09-19T05:04:04;12.47;;;4.07;;
11699;SDS011;5906;51.660;6.674;2023-09-19T05:06:31;24.10;;;3.47;;
11699;SDS011;5906;51.660;6.674;2023-09-19T05:09:00;9.53;;;3.20;;
11699;SDS011;5906;51.660;6.674;2023-09-19T05:11:27;18.87;;;3.13;;
11699;SDS011;5906;51.660;6.674;2023-09-19T05:13:56;11.97;;;3.00;;
11699;SDS011;5906;51.660;6.674;2023-09-19T05:16:28;9.10;;;3.40;;
11699;SDS011;5906;51.660;6.674;2023-09-19T05:18:56;11.23;;;3.20;;
11699;SDS011;5906;51.660;6.674;2023-09-19T05:21:24;12.10;;;3.10;;
11699;SDS011;5906;51.660;6.674;2023-09-19T05:23:54;18.17;;;3.70;;
11699;SDS011;5906;51.660;6.674;2023-09-19T05:26:22;9.33;;;3.23;;
11699;SDS011;5906;51.660;6.674;2023-09-19T05:28:48;14.97;;;3.03;;
11699;SDS011;5906;51.660;6.674;2023-09-19T05:31:16;11.77;;;3.40;;
11699;SDS011;5906;51.660;6.674;2023-09-19T05:33:43;11.77;;;3.40;;
11699;SDS011;5906;51.660;6.674;2023-09-19T05:36:10;24.10;;;4.53;;
11699;SDS011;5906;51.660;6.674;2023-09-19T05:38:38;10.57;;;3.53;;
11699;SDS011;5906;51.660;6.674;2023-09-19T05:41:07;33.07;;;4.17;;
11699;SDS011;5906;51.660;6.674;2023-09-19T05:43:36;14.00;;;4.43;;
11699;SDS011;5906;51.660;6.674;2023-09-19T05:46:04;12.20;;;3.27;;
11699;SDS011;5906;51.660;6.674;2023-09-19T05:48:31;14.60;;;3.40;;
11699;SDS011;5906;51.660;6.674;2023-09-19T05:50:58;10.67;;;2.93;;
11699;SDS011;5906;51.660;6.674;2023-09-19T05:53:27;14.03;;;3.60;;
11699;SDS011;5906;51.660;6.674;2023-09-19T05:55:55;15.73;;;2.83;;
11699;SDS011;5906;51.660;6.674;2023-09-19T05:58:22;12.93;;;3.07;;
11699;SDS011;5906;51.660;6.674;2023-09-19T06:00:49;6.00;;;2.70;;
11699;SDS011;5906;51.660;6.674;2023-09-19T06:03:16;11.00;;;3.43;;
11699;SDS011;5906;51.660;6.674;2023-09-19T06:05:45;5.47;;;3.00;;
11699;SDS011;5906;51.660;6.674;2023-09-19T06:08:16;8.60;;;3.10;;
11699;SDS011;5906;51.660;6.674;2023-09-19T06:10:43;16.30;;;3.10;;
11699;SDS011;5906;51.660;6.674;2023-09-19T06:13:10;11.80;;;3.33;;
11699;SDS011;5906;51.660;6.674;2023-09-19T06:15:37;9.20;;;2.60;;
11699;SDS011;5906;51.660;6.674;2023-09-19T06:18:09;14.90;;;2.80;;
11699;SDS011;5906;51.660;6.674;2023-09-19T06:20:41;18.07;;;3.17;;
11699;SDS011;5906;51.660;6.674;2023-09-19T06:23:11;20.10;;;3.43;;
11699;SDS011;5906;51.660;6.674;2023-09-19T06:25:38;9.70;;;2.90;;
11699;SDS011;5906;51.660;6.674;2023-09-19T06:28:05;12.17;;;3.40;;
11699;SDS011;5906;51.660;6.674;2023-09-19T06:30:34;7.17;;;3.00;;
11699;SDS011;5906;51.660;6.674;2023-09-19T06:33:02;11.20;;;3.30;;
11699;SDS011;5906;51.660;6.674;2023-09-19T06:35:31;13.23;;;3.77;;
11699;SDS011;5906;51.660;6.674;2023-09-19T06:38:03;11.57;;;3.23;;
11699;SDS011;5906;51.660;6.674;2023-09-19T06:40:30;7.57;;;3.33;;
11699;SDS011;5906;51.660;6.674;2023-09-19T06:42:57;11.47;;;3.40;;
11699;SDS011;5906;51.660;6.674;2023-09-19T06:45:25;20.73;;;3.07;;
11699;SDS011;5906;51.660;6.674;2023-09-19T06:47:53;9.10;;;3.20;;
11699;SDS011;5906;51.660;6.674;2023-09-19T06:50:25;17.10;;;3.10;;
11699;SDS011;5906;51.660;6.674;2023-09-19T06:52:54;16.23;;;3.17;;
11699;SDS011;5906;51.660;6.674;2023-09-19T06:55:24;14.13;;;3.93;;
11699;SDS011;5906;51.660;6.674;2023-09-19T06:57:54;15.47;;;3.20;;
11699;SDS011;5906;51.660;6.674;2023-09-19T07:00:21;9.97;;;3.13;;
11699;SDS011;5906;51.660;6.674;2023-09-19T07:05:38;13.03;;;3.23;;
11699;SDS011;5906;51.660;6.674;2023-09-19T07:08:07;14.50;;;3.30;;
11699;SDS011;5906;51.660;6.674;2023-09-19T07:10:37;21.43;;;3.30;;
11699;SDS011;5906;51.660;6.674;2023-09-19T07:13:06;10.23;;;3.43;;
11699;SDS011;5906;51.660;6.674;2023-09-19T07:15:37;15.33;;;3.27;;
11699;SDS011;5906;51.660;6.674;2023-09-19T07:18:06;15.20;;;3.67;;
11699;SDS011;5906;51.660;6.674;2023-09-19T07:20:37;20.77;;;7.30;;
11699;SDS011;5906;51.660;6.674;2023-09-19T07:23:04;20.73;;;3.57;;
11699;SDS011;5906;51.660;6.674;2023-09-19T07:25:32;18.73;;;3.70;;
11699;SDS011;5906;51.660;6.674;2023-09-19T07:28:02;11.00;;;3.50;;
11699;SDS011;5906;51.660;6.674;2023-09-19T07:30:29;14.60;;;3.30;;
11699;SDS011;5906;51.660;6.674;2023-09-19T07:32:56;8.97;;;2.70;;
11699;SDS011;5906;51.660;6.674;2023-09-19T07:35:24;18.27;;;3.30;;
11699;SDS011;5906;51.660;6.674;2023-09-19T07:37:52;13.13;;;2.97;;
11699;SDS011;5906;51.660;6.674;2023-09-19T07:40:19;11.57;;;3.17;;
11699;SDS011;5906;51.660;6.674;2023-09-19T07:42:53;9.53;;;3.60;;
11699;SDS011;5906;51.660;6.674;2023-09-19T07:45:23;24.17;;;4.30;;
11699;SDS011;5906;51.660;6.674;2023-09-19T07:47:51;15.67;;;4.27;;
11699;SDS011;5906;51.660;6.674;2023-09-19T07:50:19;11.03;;;3.53;;
11699;SDS011;5906;51.660;6.674;2023-09-19T07:52:46;14.10;;;3.57;;
11699;SDS011;5906;51.660;6.674;2023-09-19T07:55:14;21.83;;;2.80;;
11699;SDS011;5906;51.660;6.674;2023-09-19T07:57:46;23.07;;;4.83;;
11699;SDS011;5906;51.660;6.674;2023-09-19T08:00:13;9.03;;;4.60;;
11699;SDS011;5906;51.660;6.674;2023-09-19T08:02:41;14.53;;;3.20;;
11699;SDS011;5906;51.660;6.674;2023-09-19T08:05:09;12.33;;;3.37;;
11699;SDS011;5906;51.660;6.674;2023-09-19T08:07:39;14.40;;;3.00;;
11699;SDS011;5906;51.660;6.674;2023-09-19T08:10:09;20.67;;;3.30;;
11699;SDS011;5906;51.660;6.674;2023-09-19T08:12:42;11.73;;;3.20;;
11699;SDS011;5906;51.660;6.674;2023-09-19T08:15:16;10.47;;;3.20;;
11699;SDS011;5906;51.660;6.674;2023-09-19T08:17:47;13.80;;;2.90;;
11699;SDS011;5906;51.660;6.674;2023-09-19T08:20:15;14.93;;;3.40;;
11699;SDS011;5906;51.660;6.674;2023-09-19T08:25:19;21.23;;;3.37;;
11699;SDS011;5906;51.660;6.674;2023-09-19T08:27:48;15.90;;;3.63;;
11699;SDS011;5906;51.660;6.674;2023-09-19T08:30:16;9.17;;;3.43;;
11699;SDS011;5906;51.660;6.674;2023-09-19T08:32:46;10.60;;;4.43;;
11699;SDS011;5906;51.660;6.674;2023-09-19T08:35:14;17.33;;;3.10;;
11699;SDS011;5906;51.660;6.674;2023-09-19T08:37:44;12.77;;;3.27;;
11699;SDS011;5906;51.660;6.674;2023-09-19T08:40:14;14.40;;;3.40;;
11699;SDS011;5906;51.660;6.674;2023-09-19T08:42:51;18.40;;;3.03;;
11699;SDS011;5906;51.660;6.674;2023-09-19T08:45:23;14.93;;;3.77;;
11699;SDS011;5906;51.660;6.674;2023-09-19T08:50:55;10.20;;;3.10;;
11699;SDS011;5906;51.660;6.674;2023-09-19T08:53:31;13.00;;;3.40;;
11699;SDS011;5906;51.660;6.674;2023-09-19T08:56:09;9.30;;;3.10;;
11699;SDS011;5906;51.660;6.674;2023-09-19T08:58:59;17.40;;;2.87;;
11699;SDS011;5906;51.660;6.674;2023-09-19T09:01:34;8.00;;;3.23;;
11699;SDS011;5906;51.660;6.674;2023-09-19T09:04:02;9.33;;;3.10;;
11699;SDS011;5906;51.660;6.674;2023-09-19T09:06:29;13.73;;;3.30;;
11699;SDS011;5906;51.660;6.674;2023-09-19T09:08:59;21.80;;;3.30;;
11699;SDS011;5906;51.660;6.674;2023-09-19T09:11:27;11.50;;;2.60;;
11699;SDS011;5906;51.660;6.674;2023-09-19T09:13:54;8.83;;;2.80;;
11699;SDS011;5906;51.660;6.674;2023-09-19T09:16:24;13.87;;;3.30;;
11699;SDS011;5906;51.660;6.674;2023-09-19T09:18:52;13.50;;;3.17;;
11699;SDS011;5906;51.660;6.674;2023-09-19T09:21:21;17.70;;;3.80;;
11699;SDS011;5906;51.660;6.674;2023-09-19T09:23:49;15.57;;;3.07;;
11699;SDS011;5906;51.660;6.674;2023-09-19T09:26:23;8.80;;;3.10;;
11699;SDS011;5906;51.660;6.674;2023-09-19T09:29:09;30.70;;;3.80;;
11699;SDS011;5906;51.660;6.674;2023-09-19T09:31:36;13.97;;;3.83;;
11699;SDS011;5906;51.660;6.674;2023-09-19T09:34:04;10.10;;;2.47;;
11699;SDS011;5906;51.660;6.674;2023-09-19T09:36:36;13.27;;;3.13;;
11699;SDS011;5906;51.660;6.674;2023-09-19T09:39:05;21.93;;;3.90;;
11699;SDS011;5906;51.660;6.674;2023-09-19T09:41:52;19.80;;;3.27;;
11699;SDS011;5906;51.660;6.674;2023-09-19T09:44:19;12.47;;;2.87;;
11699;SDS011;5906;51.660;6.674;2023-09-19T09:46:46;13.40;;;2.83;;
11699;SDS011;5906;51.660;6.674;2023-09-19T09:49:25;13.50;;;3.03;;
11699;SDS011;5906;51.660;6.674;2023-09-19T09:52:04;10.40;;;2.93;;
11699;SDS011;5906;51.660;6.674;2023-09-19T09:54:37;13.40;;;3.00;;
11699;SDS011;5906;51.660;6.674;2023-09-19T09:57:09;10.97;;;3.40;;
11699;SDS011;5906;51.660;6.674;2023-09-19T09:59:44;10.90;;;3.40;;
11699;SDS011;5906;51.660;6.674;2023-09-19T10:02:17;11.30;;;3.30;;
11699;SDS011;5906;51.660;6.674;2023-09-19T10:04:52;5.60;;;2.80;;
11699;SDS011;5906;51.660;6.674;2023-09-19T10:07:46;13.43;;;2.80;;
11699;SDS011;5906;51.660;6.674;2023-09-19T10:10:29;19.93;;;3.50;;
11699;SDS011;5906;51.660;6.674;2023-09-19T10:13:09;10.67;;;3.00;;
11699;SDS011;5906;51.660;6.674;2023-09-19T10:15:44;14.80;;;3.27;;
11699;SDS011;5906;51.660;6.674;2023-09-19T10:18:19;19.53;;;3.20;;
11699;SDS011;5906;51.660;6.674;2023-09-19T10:20:47;14.60;;;2.57;;
11699;SDS011;5906;51.660;6.674;2023-09-19T10:23:19;15.50;;;3.47;;
11699;SDS011;5906;51.660;6.674;2023-09-19T10:25:50;10.40;;;2.83;;
11699;SDS011;5906;51.660;6.674;2023-09-19T10:28:19;13.10;;;3.17;;
11699;SDS011;5906;51.660;6.674;2023-09-19T10:30:50;12.43;;;3.07;;
11699;SDS011;5906;51.660;6.674;2023-09-19T10:33:20;10.67;;;2.67;;
11699;SDS011;5906;51.660;6.674;2023-09-19T10:35:49;9.73;;;2.97;;
11699;SDS011;5906;51.660;6.674;2023-09-19T10:38:26;11.00;;;2.70;;
11699;SDS011;5906;51.660;6.674;2023-09-19T10:40:55;8.20;;;3.83;;
11699;SDS011;5906;51.660;6.674;2023-09-19T10:43:31;7.90;;;2.70;;
11699;SDS011;5906;51.660;6.674;2023-09-19T10:46:03;8.70;;;2.70;;
11699;SDS011;5906;51.660;6.674;2023-09-19T10:48:34;15.43;;;3.20;;
11699;SDS011;5906;51.660;6.674;2023-09-19T10:53:55;17.57;;;2.97;;
11699;SDS011;5906;51.660;6.674;2023-09-19T10:56:32;15.10;;;3.03;;
11699;SDS011;5906;51.660;6.674;2023-09-19T10:59:10;11.33;;;2.63;;
11699;SDS011;5906;51.660;6.674;2023-09-19T11:01:51;15.20;;;3.17;;
11699;SDS011;5906;51.660;6.674;2023-09-19T11:14:58;7.53;;;2.60;;
11699;SDS011;5906;51.660;6.674;2023-09-19T11:17:35;12.87;;;2.80;;
11699;SDS011;5906;51.660;6.674;2023-09-19T11:30:54;12.03;;;2.70;;
11699;SDS011;5906;51.660;6.674;2023-09-19T11:33:23;9.30;;;2.83;;
11699;SDS011;5906;51.660;6.674;2023-09-19T11:36:16;9.63;;;2.50;;
11699;SDS011;5906;51.660;6.674;2023-09-19T11:43:53;7.80;;;2.97;;
11699;SDS011;5906;51.660;6.674;2023-09-19T11:49:19;12.17;;;2.70;;
11699;SDS011;5906;51.660;6.674;2023-09-19T11:51:53;7.17;;;2.50;;
11699;SDS011;5906;51.660;6.674;2023-09-19T11:54:20;8.90;;;2.37;;
11699;SDS011;5906;51.660;6.674;2023-09-19T11:56:51;8.67;;;2.73;;
11699;SDS011;5906;51.660;6.674;2023-09-19T11:59:24;9.13;;;3.03;;
11699;SDS011;5906;51.660;6.674;2023-09-19T12:01:56;7.77;;;2.60;;
11699;SDS011;5906;51.660;6.674;2023-09-19T12:07:09;6.70;;;2.47;;
11699;SDS011;5906;51.660;6.674;2023-09-19T12:09:43;9.33;;;2.50;;
11699;SDS011;5906;51.660;6.674;2023-09-19T12:12:29;14.43;;;3.20;;
11699;SDS011;5906;51.660;6.674;2023-09-19T12:14:57;11.20;;;2.50;;
11699;SDS011;5906;51.660;6.674;2023-09-19T12:17:35;12.53;;;2.77;;
11699;SDS011;5906;51.660;6.674;2023-09-19T12:20:08;12.03;;;2.77;;
11699;SDS011;5906;51.660;6.674;2023-09-19T12:22:44;14.73;;;2.57;;
11699;SDS011;5906;51.660;6.674;2023-09-19T12:25:14;8.30;;;2.57;;
11699;SDS011;5906;51.660;6.674;2023-09-19T12:27:44;10.10;;;2.80;;
11699;SDS011;5906;51.660;6.674;2023-09-19T12:30:13;8.83;;;2.90;;
11699;SDS011;5906;51.660;6.674;2023-09-19T12:32:53;10.60;;;2.77;;
11699;SDS011;5906;51.660;6.674;2023-09-19T12:35:32;11.40;;;2.70;;
11699;SDS011;5906;51.660;6.674;2023-09-19T12:38:03;6.20;;;2.63;;
11699;SDS011;5906;51.660;6.674;2023-09-19T12:40:31;6.40;;;2.13;;
11699;SDS011;5906;51.660;6.674;2023-09-19T12:43:00;11.50;;;2.70;;
11699;SDS011;5906;51.660;6.674;2023-09-19T12:45:32;9.30;;;2.60;;
11699;SDS011;5906;51.660;6.674;2023-09-19T12:51:06;5.00;;;2.33;;
11699;SDS011;5906;51.660;6.674;2023-09-19T12:53:39;9.03;;;2.53;;
11699;SDS011;5906;51.660;6.674;2023-09-19T12:56:11;13.00;;;2.67;;
11699;SDS011;5906;51.660;6.674;2023-09-19T12:58:50;6.10;;;2.33;;
11699;SDS011;5906;51.660;6.674;2023-09-19T13:01:25;5.40;;;2.27;;
11699;SDS011;5906;51.660;6.674;2023-09-19T13:06:54;11.70;;;2.30;;
11699;SDS011;5906;51.660;6.674;2023-09-19T13:09:23;11.83;;;2.47;;
11699;SDS011;5906;51.660;6.674;2023-09-19T13:11:54;13.37;;;2.30;;
11699;SDS011;5906;51.660;6.674;2023-09-19T13:14:28;8.37;;;2.70;;
11699;SDS011;5906;51.660;6.674;2023-09-19T13:17:07;5.90;;;2.40;;
11699;SDS011;5906;51.660;6.674;2023-09-19T13:19:46;4.30;;;1.90;;
11699;SDS011;5906;51.660;6.674;2023-09-19T13:22:40;10.90;;;2.50;;
11699;SDS011;5906;51.660;6.674;2023-09-19T13:25:16;9.50;;;2.23;;
11699;SDS011;5906;51.660;6.674;2023-09-19T13:27:50;5.53;;;2.23;;
11699;SDS011;5906;51.660;6.674;2023-09-19T13:30:26;8.83;;;2.03;;
11699;SDS011;5906;51.660;6.674;2023-09-19T13:33:04;6.30;;;1.87;;
11699;SDS011;5906;51.660;6.674;2023-09-19T13:35:37;7.77;;;2.27;;
11699;SDS011;5906;51.660;6.674;2023-09-19T13:38:06;7.70;;;2.00;;
11699;SDS011;5906;51.660;6.674;2023-09-19T13:40:38;7.23;;;2.57;;
11699;SDS011;5906;51.660;6.674;2023-09-19T13:43:06;8.00;;;1.90;;
11699;SDS011;5906;51.660;6.674;2023-09-19T13:45:33;8.20;;;2.20;;
11699;SDS011;5906;51.660;6.674;2023-09-19T13:48:00;8.27;;;2.13;;
11699;SDS011;5906;51.660;6.674;2023-09-19T13:50:27;14.50;;;1.87;;
11699;SDS011;5906;51.660;6.674;2023-09-19T13:52:55;5.07;;;1.90;;
11699;SDS011;5906;51.660;6.674;2023-09-19T13:55:24;5.47;;;1.90;;
11699;SDS011;5906;51.660;6.674;2023-09-19T13:57:51;7.40;;;2.10;;
11699;SDS011;5906;51.660;6.674;2023-09-19T14:00:22;9.03;;;1.80;;
11699;SDS011;5906;51.660;6.674;2023-09-19T14:02:49;5.23;;;2.03;;
11699;SDS011;5906;51.660;6.674;2023-09-19T14:05:18;5.53;;;1.90;;
11699;SDS011;5906;51.660;6.674;2023-09-19T14:07:47;9.40;;;2.80;;
11699;SDS011;5906;51.660;6.674;2023-09-19T14:10:15;7.00;;;1.87;;
11699;SDS011;5906;51.660;6.674;2023-09-19T14:12:44;6.53;;;2.00;;
11699;SDS011;5906;51.660;6.674;2023-09-19T14:15:12;3.67;;;1.70;;
11699;SDS011;5906;51.660;6.674;2023-09-19T14:17:39;9.50;;;2.07;;
11699;SDS011;5906;51.660;6.674;2023-09-19T14:20:09;2.83;;;1.40;;
11699;SDS011;5906;51.660;6.674;2023-09-19T14:22:37;9.07;;;1.73;;
11699;SDS011;5906;51.660;6.674;2023-09-19T14:25:04;3.70;;;1.50;;
11699;SDS011;5906;51.660;6.674;2023-09-19T14:27:32;5.90;;;1.40;;
11699;SDS011;5906;51.660;6.674;2023-09-19T14:29:59;3.63;;;1.70;;
11699;SDS011;5906;51.660;6.674;2023-09-19T14:32:26;6.50;;;1.60;;
11699;SDS011;5906;51.660;6.674;2023-09-19T14:34:53;3.43;;;1.60;;
11699;SDS011;5906;51.660;6.674;2023-09-19T14:37:20;4.40;;;1.93;;
11699;SDS011;5906;51.660;6.674;2023-09-19T14:39:49;5.87;;;2.10;;
11699;SDS011;5906;51.660;6.674;2023-09-19T14:42:17;7.43;;;1.93;;
11699;SDS011;5906;51.660;6.674;2023-09-19T14:44:44;8.50;;;1.90;;
11699;SDS011;5906;51.660;6.674;2023-09-19T14:47:13;3.50;;;1.50;;
11699;SDS011;5906;51.660;6.674;2023-09-19T14:49:41;3.63;;;1.73;;
11699;SDS011;5906;51.660;6.674;2023-09-19T14:52:09;7.07;;;2.07;;
11699;SDS011;5906;51.660;6.674;2023-09-19T14:54:39;5.23;;;2.00;;
11699;SDS011;5906;51.660;6.674;2023-09-19T14:57:08;2.27;;;1.30;;
11699;SDS011;5906;51.660;6.674;2023-09-19T14:59:35;7.87;;;1.70;;
11699;SDS011;5906;51.660;6.674;2023-09-19T15:02:06;3.63;;;1.57;;
11699;SDS011;5906;51.660;6.674;2023-09-19T15:04:33;3.13;;;1.70;;
11699;SDS011;5906;51.660;6.674;2023-09-19T15:07:01;4.60;;;1.80;;
11699;SDS011;5906;51.660;6.674;2023-09-19T15:09:29;5.20;;;1.70;;
11699;SDS011;5906;51.660;6.674;2023-09-19T15:11:58;9.73;;;1.90;;
11699;SDS011;5906;51.660;6.674;2023-09-19T15:14:25;8.17;;;2.10;;
11699;SDS011;5906;51.660;6.674;2023-09-19T15:16:53;5.10;;;1.70;;
11699;SDS011;5906;51.660;6.674;2023-09-19T15:19:20;4.70;;;1.83;;
11699;SDS011;5906;51.660;6.674;2023-09-19T15:21:49;5.27;;;1.70;;
11699;SDS011;5906;51.660;6.674;2023-09-19T15:24:16;7.40;;;2.03;;
11699;SDS011;5906;51.660;6.674;2023-09-19T15:26:44;8.13;;;1.70;;
11699;SDS011;5906;51.660;6.674;2023-09-19T15:29:12;4.13;;;1.70;;
11699;SDS011;5906;51.660;6.674;2023-09-19T15:31:41;4.27;;;1.60;;
11699;SDS011;5906;51.660;6.674;2023-09-19T15:34:08;3.30;;;1.50;;
11699;SDS011;5906;51.660;6.674;2023-09-19T15:36:36;2.10;;;1.57;;
11699;SDS011;5906;51.660;6.674;2023-09-19T15:39:05;1.87;;;1.63;;
11699;SDS011;5906;51.660;6.674;2023-09-19T15:41:35;3.40;;;1.47;;
11699;SDS011;5906;51.660;6.674;2023-09-19T15:44:04;4.47;;;1.57;;
11699;SDS011;5906;51.660;6.674;2023-09-19T15:46:36;2.97;;;1.47;;
11699;SDS011;5906;51.660;6.674;2023-09-19T15:49:04;3.60;;;1.80;;
11699;SDS011;5906;51.660;6.674;2023-09-19T15:51:31;7.27;;;1.47;;
11699;SDS011;5906;51.660;6.674;2023-09-19T15:53:58;4.70;;;1.50;;
11699;SDS011;5906;51.660;6.674;2023-09-19T15:56:26;8.93;;;1.90;;
11699;SDS011;5906;51.660;6.674;2023-09-19T15:58:54;10.20;;;1.83;;
11699;SDS011;5906;51.660;6.674;2023-09-19T16:01:22;3.10;;;1.67;;
11699;SDS011;5906;51.660;6.674;2023-09-19T16:03:53;12.73;;;1.70;;
11699;SDS011;5906;51.660;6.674;2023-09-19T16:06:26;1.90;;;1.37;;
11699;SDS011;5906;51.660;6.674;2023-09-19T16:08:55;3.50;;;1.67;;
11699;SDS011;5906;51.660;6.674;2023-09-19T16:11:26;4.73;;;1.60;;
11699;SDS011;5906;51.660;6.674;2023-09-19T16:13:54;4.20;;;1.50;;
11699;SDS011;5906;51.660;6.674;2023-09-19T16:16:22;4.07;;;1.63;;
11699;SDS011;5906;51.660;6.674;2023-09-19T16:18:54;3.70;;;1.70;;
11699;SDS011;5906;51.660;6.674;2023-09-19T16:21:24;6.40;;;1.90;;